Time;durP1;ratioP1;P1;durP2;ratioP2;P2;SDS_P1;SDS_P2;PMS_P1;PMS_P2;Temp;Humidity;BMP_temperature;BMP_pressure;BME280_temperature;BME280_humidity;BME280_pressure;Samples;Min_cycle;Max_cycle;Signal;HPM_P1;HPM_P2
2022/06/08 00:01:51;;;;;;;12.07;7.82;;;10.60;99.90;;;;;;5087065;28;20175;-79
2022/06/08 00:04:22;;;;;;;11.55;6.60;;;10.60;99.90;;;;;;5085432;28;20097;-80
2022/06/08 00:06:48;;;;;;;15.75;7.40;;;10.60;99.90;;;;;;5085000;28;20050;-78
2022/06/08 00:09:14;;;;;;;15.60;7.70;;;10.60;99.90;;;;;;5088619;28;20092;-79
2022/06/08 00:11:40;;;;;;;9.80;7.25;;;10.70;99.90;;;;;;5089920;28;20481;-80
2022/06/08 00:14:05;;;;;;;9.30;7.65;;;10.50;99.90;;;;;;5082169;28;20040;-80
2022/06/08 00:16:31;;;;;;;11.52;7.53;;;10.50;99.90;;;;;;5086461;28;20039;-79
2022/06/08 00:18:57;;;;;;;14.68;8.02;;;10.50;99.90;;;;;;5089776;28;20074;-79
2022/06/08 00:21:22;;;;;;;17.85;9.27;;;10.50;99.90;;;;;;5100205;28;20057;-79
2022/06/08 00:23:48;;;;;;;15.95;7.10;;;10.60;99.90;;;;;;5092133;28;20042;-78
2022/06/08 00:26:14;;;;;;;14.20;7.50;;;10.60;99.90;;;;;;5080133;28;20383;-78
2022/06/08 00:28:40;;;;;;;12.32;7.85;;;10.60;99.90;;;;;;5081983;28;20079;-78
2022/06/08 00:31:06;;;;;;;10.32;7.40;;;10.50;99.90;;;;;;5091795;28;20066;-78
2022/06/08 00:33:32;;;;;;;11.27;7.22;;;10.40;99.90;;;;;;5075056;28;20438;-79
2022/06/08 00:35:58;;;;;;;13.13;7.53;;;10.30;99.90;;;;;;5098742;28;20053;-79
2022/06/08 00:38:23;;;;;;;8.95;7.22;;;10.40;99.90;;;;;;5098311;28;20036;-78
2022/06/08 00:41:14;;;;;;;12.82;8.07;;;10.40;99.90;;;;;;5070282;28;20046;-78
2022/06/08 00:43:40;;;;;;;14.05;8.82;;;10.30;99.90;;;;;;5080323;28;20122;-80
2022/06/08 00:46:08;;;;;;;10.90;7.85;;;10.40;99.90;;;;;;5061246;28;20384;-79
2022/06/08 00:48:41;;;;;;;9.88;7.57;;;10.30;99.90;;;;;;5084006;28;20062;-78
2022/06/08 00:51:06;;;;;;;10.52;8.30;;;10.30;99.90;;;;;;5072687;28;20431;-79
2022/06/08 00:53:50;;;;;;;13.15;8.32;;;10.40;99.90;;;;;;5086337;28;20042;-79
2022/06/08 00:56:18;;;;;;;11.45;7.97;;;10.30;99.90;;;;;;5084121;28;20048;-79
2022/06/08 00:58:44;;;;;;;11.43;7.32;;;10.30;99.90;;;;;;5080804;28;20044;-79
2022/06/08 01:01:11;;;;;;;11.70;8.05;;;10.30;99.90;;;;;;5070675;28;20374;-79
2022/06/08 01:03:38;;;;;;;17.08;8.20;;;10.50;99.90;;;;;;5078287;28;20401;-79
2022/06/08 01:06:07;;;;;;;11.75;7.70;;;10.40;99.90;;;;;;5069098;28;20070;-77
2022/06/08 01:08:40;;;;;;;12.30;7.93;;;10.40;99.90;;;;;;5086346;28;20128;-79
2022/06/08 01:11:24;;;;;;;9.20;6.38;;;10.50;99.90;;;;;;5057191;28;20051;-78
2022/06/08 01:13:52;;;;;;;14.35;7.32;;;10.40;99.90;;;;;;5079785;28;20032;-78
2022/06/08 01:16:18;;;;;;;11.50;6.75;;;10.40;99.90;;;;;;5068451;28;20055;-77
2022/06/08 01:18:43;;;;;;;10.93;7.43;;;10.30;99.90;;;;;;5087450;28;20108;-83
2022/06/08 01:21:18;;;;;;;13.40;7.60;;;10.40;99.90;;;;;;5095061;28;20043;-79
2022/06/08 01:23:46;;;;;;;7.72;6.47;;;10.20;99.90;;;;;;5087687;28;20063;-79
2022/06/08 01:26:29;;;;;;;10.00;6.57;;;10.40;99.90;;;;;;5095160;28;20032;-79
2022/06/08 01:29:33;;;;;;;12.20;6.50;;;10.20;99.90;;;;;;5081112;28;20399;-79
2022/06/08 01:32:12;;;;;;;10.20;7.18;;;10.20;99.90;;;;;;5091420;28;20063;-79
2022/06/08 01:34:59;;;;;;;9.77;7.03;;;10.10;99.90;;;;;;5072170;28;20083;-79
2022/06/08 01:37:27;;;;;;;11.95;7.35;;;10.30;99.90;;;;;;5096362;28;20040;-79
2022/06/08 01:40:16;;;;;;;10.52;6.90;;;10.30;99.90;;;;;;5048968;28;20071;-79
2022/06/08 01:43:17;;;;;;;7.57;5.65;;;10.30;99.90;;;;;;5092850;28;20075;-79
2022/06/08 01:45:55;;;;;;;9.85;6.47;;;10.30;99.90;;;;;;5079110;28;20043;-80
2022/06/08 01:48:42;;;;;;;13.95;7.50;;;10.30;99.90;;;;;;5088217;28;20789;-80
2022/06/08 01:51:29;;;;;;;10.48;7.60;;;10.30;99.90;;;;;;5085553;28;20052;-79
2022/06/08 01:54:07;;;;;;;14.27;7.13;;;10.30;99.90;;;;;;5071382;22;20151;-82
2022/06/08 01:56:39;;;;;;;12.00;6.97;;;10.30;99.90;;;;;;5046348;28;20055;-79
2022/06/08 01:59:41;;;;;;;13.75;7.68;;;10.40;99.90;;;;;;5063159;28;20067;-78
2022/06/08 02:02:15;;;;;;;11.93;8.68;;;10.30;99.90;;;;;;5059692;28;20085;-79
2022/06/08 02:04:56;;;;;;;9.73;7.82;;;10.50;99.90;;;;;;5045597;28;20047;-79
2022/06/08 02:07:44;;;;;;;16.55;9.52;;;10.50;99.90;;;;;;5042570;28;20044;-79
2022/06/08 02:10:27;;;;;;;14.10;9.80;;;10.50;99.90;;;;;;5045137;28;20086;-79
2022/06/08 02:12:59;;;;;;;10.85;8.50;;;10.50;99.90;;;;;;5056365;28;20069;-80
2022/06/08 02:15:45;;;;;;;14.82;8.40;;;10.50;99.90;;;;;;5044472;28;20084;-78
2022/06/08 02:18:19;;;;;;;13.48;9.27;;;10.40;99.90;;;;;;5057033;28;20052;-78
2022/06/08 02:20:54;;;;;;;18.17;9.32;;;10.40;99.90;;;;;;5060178;28;20056;-78
2022/06/08 02:23:26;;;;;;;16.17;9.50;;;10.50;99.90;;;;;;5061957;28;20097;-78
2022/06/08 02:26:15;;;;;;;13.48;9.68;;;10.60;99.90;;;;;;5062195;28;20047;-78
2022/06/08 02:29:04;;;;;;;14.07;10.82;;;10.60;99.90;;;;;;5051040;28;20045;-79
2022/06/08 02:31:48;;;;;;;18.75;10.45;;;10.50;99.90;;;;;;5029154;28;20592;-80
2022/06/08 02:34:28;;;;;;;18.15;10.55;;;10.60;99.90;;;;;;5058394;28;21459;-79
2022/06/08 02:37:03;;;;;;;19.45;11.13;;;10.60;99.90;;;;;;5062481;28;20136;-80
2022/06/08 02:39:56;;;;;;;19.33;11.50;;;10.60;99.90;;;;;;5058208;28;20067;-80
2022/06/08 02:42:35;;;;;;;18.02;12.50;;;10.60;99.90;;;;;;5062294;28;20045;-80
2022/06/08 02:45:23;;;;;;;15.73;11.33;;;10.60;99.90;;;;;;5042161;28;20063;-80
2022/06/08 02:47:51;;;;;;;17.77;12.15;;;10.60;99.90;;;;;;5059049;28;20041;-80
2022/06/08 02:50:21;;;;;;;16.60;12.48;;;10.60;99.90;;;;;;5061593;28;20418;-78
2022/06/08 02:52:48;;;;;;;21.90;13.68;;;10.70;99.90;;;;;;5061585;28;20048;-79
2022/06/08 02:55:33;;;;;;;20.98;11.85;;;10.60;99.90;;;;;;5055362;28;20818;-80
2022/06/08 02:58:05;;;;;;;24.25;12.63;;;10.70;99.90;;;;;;5049215;28;20105;-79
2022/06/08 03:00:38;;;;;;;20.77;14.88;;;10.60;99.90;;;;;;5054210;28;20073;-79
2022/06/08 03:03:14;;;;;;;20.38;13.93;;;10.70;99.90;;;;;;5058979;28;20063;-78
2022/06/08 03:05:42;;;;;;;21.83;12.70;;;10.60;99.90;;;;;;5056957;28;20055;-78
2022/06/08 03:08:15;;;;;;;22.10;15.10;;;10.60;99.90;;;;;;5038895;28;20135;-79
2022/06/08 03:10:42;;;;;;;20.33;14.38;;;10.50;99.90;;;;;;5058384;28;20048;-79
2022/06/08 03:13:15;;;;;;;23.13;14.00;;;10.70;99.90;;;;;;5059581;28;20375;-80
2022/06/08 03:15:42;;;;;;;19.13;13.60;;;10.60;99.90;;;;;;5058863;28;20052;-78
2022/06/08 03:18:08;;;;;;;25.65;15.68;;;10.70;99.90;;;;;;5059695;28;20037;-80
2022/06/08 03:20:34;;;;;;;22.05;14.13;;;10.70;99.90;;;;;;5059765;28;20082;-79
2022/06/08 03:23:00;;;;;;;19.08;14.30;;;10.70;99.90;;;;;;5057658;28;20071;-80
2022/06/08 03:25:26;;;;;;;21.52;13.82;;;10.60;99.90;;;;;;5041111;28;20048;-81
2022/06/08 03:27:53;;;;;;;28.40;16.92;;;10.60;99.90;;;;;;5040293;28;20048;-80
2022/06/08 03:30:19;;;;;;;22.40;13.60;;;10.70;99.90;;;;;;5038072;28;20124;-80
2022/06/08 03:32:45;;;;;;;21.48;14.85;;;10.60;99.90;;;;;;5058769;28;20045;-80
2022/06/08 03:35:12;;;;;;;18.60;14.57;;;10.70;99.90;;;;;;5059432;28;20048;-80
2022/06/08 03:37:37;;;;;;;17.33;12.50;;;10.70;99.90;;;;;;5061761;28;20041;-81
2022/06/08 03:40:05;;;;;;;18.05;13.05;;;10.70;99.90;;;;;;5057761;28;20051;-80
2022/06/08 03:42:31;;;;;;;17.63;12.43;;;10.80;99.90;;;;;;5043144;28;20403;-80
2022/06/08 03:44:57;;;;;;;21.50;14.35;;;10.90;99.90;;;;;;5041005;28;20040;-80
2022/06/08 03:47:27;;;;;;;15.55;13.23;;;10.80;99.90;;;;;;5059938;28;20440;-79
2022/06/08 03:50:00;;;;;;;17.08;14.20;;;10.90;99.90;;;;;;5037728;28;20044;-79
2022/06/08 03:52:30;;;;;;;17.10;14.48;;;10.90;99.90;;;;;;5053622;28;20028;-78
2022/06/08 03:54:59;;;;;;;;;;;11.00;99.90;;;;;;5058332;28;20048;-80
2022/06/08 03:57:25;;;;;;;17.98;14.63;;;11.10;99.90;;;;;;5057142;28;19928;-79
2022/06/08 03:59:51;;;;;;;29.67;15.88;;;11.00;99.90;;;;;;5036272;28;20360;-80
2022/06/08 04:02:18;;;;;;;20.27;14.48;;;11.20;99.90;;;;;;5053906;28;20048;-79
2022/06/08 04:04:44;;;;;;;23.10;15.15;;;11.20;99.90;;;;;;5040706;28;20055;-80
2022/06/08 04:07:10;;;;;;;18.73;14.50;;;11.40;99.90;;;;;;5058460;28;20033;-79
2022/06/08 04:09:37;;;;;;;19.88;14.55;;;11.50;99.90;;;;;;5062610;28;20052;-79
2022/06/08 04:12:03;;;;;;;21.45;15.10;;;11.50;99.90;;;;;;5061142;28;20436;-79
2022/06/08 04:14:29;;;;;;;18.95;16.42;;;11.80;99.90;;;;;;5062449;28;20051;-80
2022/06/08 04:16:55;;;;;;;21.17;15.55;;;11.90;99.90;;;;;;5045323;28;20073;-80
2022/06/08 04:19:20;;;;;;;22.15;17.25;;;11.80;99.90;;;;;;5063615;28;20153;-77
2022/06/08 04:21:47;;;;;;;22.42;14.95;;;11.80;99.90;;;;;;5063975;28;20055;-80
2022/06/08 04:24:15;;;;;;;20.95;15.02;;;11.90;99.90;;;;;;5042317;28;20299;-79
2022/06/08 04:26:41;;;;;;;19.75;16.13;;;11.80;99.90;;;;;;5061600;28;20062;-81
2022/06/08 04:29:08;;;;;;;21.38;15.52;;;11.80;99.90;;;;;;5040335;28;20056;-80
2022/06/08 04:31:34;;;;;;;20.15;15.40;;;11.80;99.90;;;;;;5060885;28;20036;-79
2022/06/08 04:34:03;;;;;;;17.20;14.02;;;11.90;99.90;;;;;;5061084;28;20051;-80
2022/06/08 04:36:31;;;;;;;19.23;14.75;;;11.90;99.90;;;;;;5027450;28;20538;-80
2022/06/08 04:38:57;;;;;;;24.73;17.40;;;11.90;99.90;;;;;;5041773;28;20041;-80
2022/06/08 04:41:23;;;;;;;18.75;14.30;;;11.90;99.90;;;;;;5043565;28;20475;-79
2022/06/08 04:43:49;;;;;;;21.60;15.98;;;12.10;99.90;;;;;;5062597;28;20024;-80
2022/06/08 04:46:17;;;;;;;21.55;17.48;;;12.10;99.90;;;;;;5059914;28;20049;-80
2022/06/08 04:48:44;;;;;;;22.58;16.52;;;12.20;99.90;;;;;;5042460;28;20056;-79
2022/06/08 04:51:10;;;;;;;24.13;17.50;;;12.00;99.90;;;;;;5060686;28;20133;-78
2022/06/08 04:53:38;;;;;;;21.77;16.73;;;12.10;99.90;;;;;;5040432;28;20048;-81
2022/06/08 04:56:04;;;;;;;25.10;17.30;;;12.20;99.90;;;;;;5059842;28;20130;-80
2022/06/08 04:58:30;;;;;;;21.23;16.17;;;12.20;99.90;;;;;;5057366;28;20411;-81
2022/06/08 05:00:55;;;;;;;22.00;18.10;;;12.30;99.90;;;;;;5059053;28;20062;-80
2022/06/08 05:03:21;;;;;;;24.35;18.63;;;12.40;99.90;;;;;;5043842;28;20089;-80
2022/06/08 05:05:47;;;;;;;25.40;17.60;;;12.50;99.90;;;;;;5061374;28;20032;-80
2022/06/08 05:08:16;;;;;;;27.73;16.63;;;12.40;99.90;;;;;;5044739;28;20048;-80
2022/06/08 05:10:41;;;;;;;22.00;16.83;;;12.60;99.90;;;;;;5059295;28;20051;-80
2022/06/08 05:13:08;;;;;;;19.48;16.35;;;12.50;99.90;;;;;;5065098;28;20474;-80
2022/06/08 05:15:37;;;;;;;31.25;18.60;;;12.50;99.90;;;;;;5042139;28;20044;-80
2022/06/08 05:18:03;;;;;;;28.80;20.02;;;12.70;99.90;;;;;;5026478;28;20040;-78
2022/06/08 05:20:30;;;;;;;28.50;18.25;;;12.80;99.90;;;;;;5060021;28;20101;-81
2022/06/08 05:22:56;;;;;;;25.58;19.80;;;12.70;99.90;;;;;;5061772;28;20106;-79
2022/06/08 05:25:29;;;;;;;22.38;17.88;;;13.00;99.90;;;;;;5061753;28;20040;-80
2022/06/08 05:27:55;;;;;;;28.42;17.60;;;13.10;99.90;;;;;;5057322;28;20056;-80
2022/06/08 05:30:21;;;;;;;23.67;17.63;;;13.00;99.90;;;;;;5061507;28;20044;-78
2022/06/08 05:32:47;;;;;;;26.85;19.83;;;13.20;99.90;;;;;;5060918;28;20229;-80
2022/06/08 05:35:13;;;;;;;25.75;18.25;;;13.40;99.90;;;;;;5044227;28;20088;-80
2022/06/08 05:37:38;;;;;;;24.75;19.63;;;13.40;99.90;;;;;;5060887;28;20478;-79
2022/06/08 05:40:06;;;;;;;26.38;17.83;;;13.50;99.90;;;;;;5052673;28;20139;-80
2022/06/08 05:42:32;;;;;;;25.17;18.67;;;13.60;99.90;;;;;;5039585;28;20043;-80
2022/06/08 05:44:57;;;;;;;23.77;18.83;;;13.70;99.90;;;;;;5041546;28;20048;-80
2022/06/08 05:47:25;;;;;;;24.38;16.73;;;13.60;99.90;;;;;;5042426;28;20053;-80
2022/06/08 05:49:50;;;;;;;27.58;15.98;;;13.70;99.90;;;;;;5062634;28;20123;-79
2022/06/08 05:52:17;;;;;;;22.73;17.35;;;13.90;99.90;;;;;;5060372;28;20123;-78
2022/06/08 05:54:44;;;;;;;20.92;17.08;;;14.00;99.90;;;;;;5063687;28;20052;-79
2022/06/08 05:57:10;;;;;;;20.83;16.15;;;14.10;99.90;;;;;;5059142;28;20445;-78
2022/06/08 05:59:36;;;;;;;23.05;16.52;;;14.00;99.90;;;;;;5060333;28;20064;-79
2022/06/08 06:02:07;;;;;;;24.30;17.25;;;14.30;99.90;;;;;;5056173;28;20538;-77
2022/06/08 06:04:33;;;;;;;19.48;14.80;;;14.30;99.90;;;;;;5063169;28;20057;-80
2022/06/08 06:06:59;;;;;;;19.73;14.65;;;14.30;99.90;;;;;;5038941;28;20051;-80
2022/06/08 06:09:26;;;;;;;22.65;17.00;;;14.30;99.90;;;;;;5051557;28;20044;-79
2022/06/08 06:11:52;;;;;;;20.83;14.73;;;14.30;99.90;;;;;;5060886;28;20441;-80
2022/06/08 06:14:18;;;;;;;18.33;14.63;;;14.40;99.90;;;;;;5062271;28;20033;-78
2022/06/08 06:16:44;;;;;;;20.13;15.00;;;14.30;99.90;;;;;;5062512;28;20444;-80
2022/06/08 06:19:11;;;;;;;17.70;14.07;;;14.40;99.90;;;;;;5061483;28;20036;-78
2022/06/08 06:21:38;;;;;;;18.75;13.93;;;14.50;99.90;;;;;;5061712;28;20564;-78
2022/06/08 06:24:04;;;;;;;17.33;13.05;;;14.50;99.90;;;;;;5061330;28;20068;-76
2022/06/08 06:26:30;;;;;;;19.67;14.55;;;14.80;99.90;;;;;;5061129;28;20474;-79
2022/06/08 06:28:57;;;;;;;15.85;13.32;;;14.70;99.90;;;;;;5060360;28;20556;-78
2022/06/08 06:31:30;;;;;;;20.63;14.93;;;14.80;99.90;;;;;;5060300;28;20045;-78
2022/06/08 06:33:56;;;;;;;24.63;15.48;;;14.80;99.90;;;;;;5061797;28;20479;-79
2022/06/08 06:36:22;;;;;;;22.25;16.40;;;15.10;99.90;;;;;;5060409;28;20086;-79
2022/06/08 06:38:47;;;;;;;19.45;13.88;;;15.10;99.90;;;;;;5044880;28;20033;-77
2022/06/08 06:41:16;;;;;;;16.17;14.30;;;15.20;99.90;;;;;;5060190;28;20581;-79
2022/06/08 06:43:42;;;;;;;18.58;14.95;;;15.30;99.90;;;;;;5057567;28;20034;-81
2022/06/08 06:46:10;;;;;;;17.38;13.70;;;15.40;99.90;;;;;;5059407;28;20041;-80
2022/06/08 06:48:36;;;;;;;17.52;14.50;;;15.40;99.90;;;;;;5043169;28;20116;-78
2022/06/08 06:51:03;;;;;;;18.13;13.70;;;15.50;99.90;;;;;;5037433;28;20578;-79
2022/06/08 06:53:29;;;;;;;15.93;13.70;;;15.40;99.90;;;;;;5056948;28;20048;-80
2022/06/08 06:55:55;;;;;;;15.90;13.10;;;15.20;99.90;;;;;;5057424;28;20048;-80
2022/06/08 06:58:22;;;;;;;16.58;13.05;;;15.30;99.90;;;;;;5059969;28;20107;-78
2022/06/08 07:00:48;;;;;;;18.55;13.57;;;15.30;99.90;;;;;;5059364;28;20054;-77
2022/06/08 07:03:13;;;;;;;17.13;12.00;;;15.40;99.90;;;;;;5060525;28;20214;-79
2022/06/08 07:05:39;;;;;;;16.65;14.63;;;15.50;99.90;;;;;;5059231;28;20068;-79
2022/06/08 07:08:05;;;;;;;15.30;12.70;;;15.50;99.90;;;;;;5043029;28;21019;-81
2022/06/08 07:10:31;;;;;;;18.38;12.25;;;15.60;99.90;;;;;;5058009;28;20083;-81
2022/06/08 07:12:57;;;;;;;16.52;11.93;;;15.50;99.90;;;;;;5043993;28;20087;-80
2022/06/08 07:15:23;;;;;;;14.60;11.07;;;15.50;99.90;;;;;;5057039;28;20101;-80
2022/06/08 07:17:50;;;;;;;15.02;11.70;;;15.50;99.90;;;;;;5043914;28;20043;-80
2022/06/08 07:20:18;;;;;;;17.25;12.63;;;15.40;99.90;;;;;;5058334;28;20052;-81
2022/06/08 07:22:44;;;;;;;15.60;12.30;;;15.60;99.90;;;;;;5058688;28;20040;-80
2022/06/08 07:25:12;;;;;;;17.00;11.80;;;15.50;99.90;;;;;;5057703;28;20032;-80
2022/06/08 07:27:39;;;;;;;17.70;11.48;;;15.70;99.90;;;;;;5036946;28;20457;-79
2022/06/08 07:30:06;;;;;;;15.35;9.80;;;15.90;99.90;;;;;;5057804;28;20491;-81
2022/06/08 07:32:32;;;;;;;12.68;10.50;;;15.90;99.90;;;;;;5055737;28;20093;-80
2022/06/08 07:34:58;;;;;;;14.02;10.50;;;15.90;99.90;;;;;;5043904;28;20491;-80
2022/06/08 07:37:25;;;;;;;12.15;10.00;;;16.00;99.90;;;;;;5057445;28;20497;-80
2022/06/08 07:39:51;;;;;;;11.55;9.07;;;16.40;99.90;;;;;;5058796;28;20040;-80
2022/06/08 07:42:17;;;;;;;14.48;9.93;;;16.50;99.90;;;;;;5041017;28;20459;-79
2022/06/08 07:44:44;;;;;;;13.07;10.07;;;16.50;99.90;;;;;;5057565;28;20045;-81
2022/06/08 07:47:09;;;;;;;11.50;9.23;;;16.70;99.90;;;;;;5060647;28;20040;-80
2022/06/08 07:49:45;;;;;;;10.05;7.68;;;16.60;99.90;;;;;;5063924;28;20044;-80
2022/06/08 07:52:15;;;;;;;10.23;7.22;;;16.80;99.90;;;;;;5055088;28;20040;-80
2022/06/08 07:54:43;;;;;;;11.85;8.18;;;17.10;99.90;;;;;;5061325;28;20060;-81
2022/06/08 07:57:20;;;;;;;8.32;6.55;;;17.20;99.90;;;;;;5063367;28;20141;-79
2022/06/08 07:59:47;;;;;;;9.13;6.50;;;17.40;99.90;;;;;;5064197;28;20375;-82
2022/06/08 08:02:14;;;;;;;8.10;6.05;;;17.20;99.90;;;;;;5042660;28;20040;-86
2022/06/08 08:04:40;;;;;;;12.05;6.75;;;17.20;99.90;;;;;;5061149;28;20052;-85
2022/06/08 08:07:06;;;;;;;8.05;6.40;;;17.20;99.90;;;;;;5044982;28;20123;-81
2022/06/08 08:09:34;;;;;;;8.88;6.28;;;17.30;99.90;;;;;;5062906;28;20143;-85
2022/06/08 08:12:00;;;;;;;9.93;6.72;;;17.40;99.90;;;;;;5060382;28;20395;-84
2022/06/08 08:14:27;;;;;;;7.60;6.00;;;17.40;99.90;;;;;;5062061;28;20043;-83
2022/06/08 08:16:53;;;;;;;9.68;6.72;;;17.50;99.90;;;;;;5058229;28;20029;-82
2022/06/08 08:19:21;;;;;;;10.88;6.25;;;17.70;99.90;;;;;;5064966;28;20036;-82
2022/06/08 08:21:48;;;;;;;6.75;5.65;;;17.80;99.90;;;;;;5065540;28;20040;-78
2022/06/08 08:24:14;;;;;;;7.00;4.63;;;18.00;99.90;;;;;;5048967;28;20379;-80
2022/06/08 08:26:43;;;;;;;6.10;3.53;;;18.10;99.90;;;;;;5064268;28;20040;-82
2022/06/08 08:29:09;;;;;;;6.90;3.13;;;18.10;99.90;;;;;;5047027;28;20076;-82
2022/06/08 08:31:35;;;;;;;3.83;3.35;;;18.20;99.90;;;;;;5060922;28;20505;-84
2022/06/08 08:34:01;;;;;;;4.22;3.67;;;18.60;99.90;;;;;;5065167;28;20037;-82
2022/06/08 08:36:27;;;;;;;5.28;3.20;;;18.50;99.90;;;;;;5059684;28;20033;-84
2022/06/08 08:38:53;;;;;;;5.78;2.85;;;18.50;99.90;;;;;;5065252;28;20060;-85
2022/06/08 08:44:38;;;;;;;4.43;2.08;;;18.20;99.90;;;;;;5063470;28;20072;-77
2022/06/08 08:47:38;;;;;;;8.98;3.10;;;18.40;99.90;;;;;;5008802;28;20053;-77
2022/06/08 08:50:24;;;;;;;3.03;1.42;;;18.40;99.90;;;;;;5065273;28;20116;-76
2022/06/08 08:53:02;;;;;;;2.50;1.73;;;18.40;99.90;;;;;;5065761;28;20449;-81
2022/06/08 08:55:50;;;;;;;5.25;1.80;;;18.30;99.90;;;;;;5048308;28;20048;-81
2022/06/08 08:58:26;;;;;;;3.67;2.85;;;18.60;99.90;;;;;;5047485;28;20234;-80
2022/06/08 09:00:58;;;;;;;3.67;2.40;;;18.60;99.90;;;;;;5060743;28;20049;-80
2022/06/08 09:03:32;;;;;;;3.20;2.90;;;18.60;99.90;;;;;;5063695;28;20041;-82
2022/06/08 09:06:11;;;;;;;2.50;1.80;;;18.90;99.90;;;;;;5061918;28;20133;-82
2022/06/08 09:08:37;;;;;;;3.72;2.42;;;18.80;99.90;;;;;;5060957;28;20059;-82
2022/06/08 09:11:03;;;;;;;4.60;2.40;;;18.60;99.90;;;;;;5064166;28;20033;-80
2022/06/08 09:13:57;;;;;;;4.88;3.15;;;18.70;99.90;;;;;;5064298;28;20055;-82
2022/06/08 09:16:25;;;;;;;7.13;3.03;;;18.60;99.90;;;;;;5039747;28;20099;-82
2022/06/08 09:18:51;;;;;;;3.38;3.08;;;18.70;99.90;;;;;;5063386;28;20036;-82
2022/06/08 09:21:26;;;;;;;5.15;2.42;;;18.60;99.90;;;;;;5065150;28;20056;-82
2022/06/08 09:23:58;;;;;;;3.97;2.50;;;18.60;99.90;;;;;;5044914;28;20559;-82
2022/06/08 09:26:24;;;;;;;4.20;3.33;;;18.40;99.90;;;;;;5045364;28;20048;-81
2022/06/08 09:29:07;;;;;;;4.30;2.60;;;18.30;99.90;;;;;;5064593;28;20032;-81
2022/06/08 09:31:35;;;;;;;9.88;4.10;;;18.50;99.90;;;;;;5049291;28;20098;-82
2022/06/08 09:34:19;;;;;;;9.15;4.47;;;19.00;99.90;;;;;;5046449;28;20097;-76
2022/06/08 09:37:01;;;;;;;4.90;2.72;;;19.20;99.90;;;;;;5062342;28;20506;-82
2022/06/08 09:39:27;;;;;;;4.75;2.38;;;19.00;99.90;;;;;;5063464;28;20029;-82
2022/06/08 09:41:53;;;;;;;5.70;3.10;;;18.90;99.90;;;;;;5049591;28;20055;-81
2022/06/08 09:44:22;;;;;;;7.50;2.58;;;19.10;99.90;;;;;;5063367;28;20044;-78
2022/06/08 09:53:51;;;;;;;2.13;1.88;;;20.40;99.90;;;;;;5062350;28;20057;-80
2022/06/08 09:56:56;;;;;;;6.03;2.50;;;20.10;99.90;;;;;;5041172;28;20060;-81
2022/06/08 09:59:50;;;;;;;5.15;2.80;;;20.10;99.90;;;;;;5003211;28;20090;-80
2022/06/08 10:02:37;;;;;;;8.10;4.38;;;20.20;99.90;;;;;;5045388;28;20052;-82
2022/06/08 10:05:30;;;;;;;3.70;2.83;;;19.70;99.90;;;;;;5045040;28;20052;-76
2022/06/08 10:08:19;;;;;;;4.93;3.42;;;20.30;99.90;;;;;;5060427;28;20036;-81
2022/06/08 10:10:56;;;;;;;5.20;3.75;;;20.50;99.90;;;;;;5050910;28;20060;-81
2022/06/08 10:13:42;;;;;;;5.80;3.30;;;20.60;99.90;;;;;;5054355;28;20044;-81
2022/06/08 10:16:21;;;;;;;3.67;2.88;;;20.40;99.90;;;;;;5052361;28;20084;-81
2022/06/08 10:18:56;;;;;;;4.50;3.28;;;20.40;99.90;;;;;;5063879;28;20067;-82
2022/06/08 10:21:28;;;;;;;5.30;3.28;;;20.50;99.90;;;;;;5063609;28;20391;-77
2022/06/08 10:24:03;;;;;;;3.60;3.00;;;19.80;99.90;;;;;;5059109;28;20473;-82
2022/06/08 10:26:37;;;;;;;2.88;2.60;;;19.90;99.90;;;;;;5051331;28;20075;-82
2022/06/08 10:29:09;;;;;;;3.05;2.67;;;19.80;99.90;;;;;;5073857;28;20043;-83
2022/06/08 10:31:47;;;;;;;3.67;2.53;;;19.70;99.90;;;;;;5067591;28;20196;-82
2022/06/08 10:34:18;;;;;;;5.13;2.70;;;19.60;99.90;;;;;;5063578;28;20391;-81
2022/06/08 10:36:49;;;;;;;5.45;2.35;;;19.60;99.90;;;;;;5062012;28;20029;-82
2022/06/08 10:39:15;;;;;;;3.65;2.45;;;19.40;99.90;;;;;;5057606;28;20560;-81
2022/06/08 10:45:03;;;;;;;7.45;3.25;;;19.10;99.90;;;;;;5017266;28;20449;-82
2022/06/08 10:47:34;;;;;;;9.20;5.25;;;18.90;99.90;;;;;;5063279;28;20051;-81
2022/06/08 10:50:00;;;;;;;11.57;5.13;;;18.40;99.90;;;;;;5061564;28;20459;-81
2022/06/08 10:52:45;;;;;;;8.48;5.50;;;17.90;99.90;;;;;;5047514;28;20115;-79
2022/06/08 10:55:17;;;;;;;6.85;6.15;;;17.60;99.90;;;;;;5060369;28;20142;-79
2022/06/08 10:57:49;;;;;;;6.78;5.50;;;17.70;99.90;;;;;;5042593;28;20045;-79
2022/06/08 11:00:23;;;;;;;6.90;5.15;;;17.40;99.90;;;;;;5064664;28;20047;-80
2022/06/08 11:03:03;;;;;;;7.68;5.70;;;17.40;99.90;;;;;;5044662;28;20040;-80
2022/06/08 11:05:49;;;;;;;8.07;5.25;;;17.30;99.90;;;;;;5064107;28;20139;-81
2022/06/08 11:08:21;;;;;;;7.20;5.18;;;17.20;99.90;;;;;;5062017;28;20053;-81
2022/06/08 11:10:48;;;;;;;8.00;5.60;;;17.40;99.90;;;;;;5063580;28;20044;-80
2022/06/08 11:13:24;;;;;;;9.57;7.30;;;17.20;99.90;;;;;;5060777;28;20055;-81
2022/06/08 11:16:07;;;;;;;9.15;5.82;;;17.30;99.90;;;;;;5063058;28;20443;-81
2022/06/08 11:18:47;;;;;;;9.98;6.80;;;17.20;99.90;;;;;;5068562;28;20036;-83
2022/06/08 11:21:16;;;;;;;10.57;7.35;;;17.30;99.90;;;;;;5035935;28;20079;-81
2022/06/08 11:23:44;;;;;;;10.20;8.07;;;17.30;99.90;;;;;;5052194;28;20056;-83
2022/06/08 11:26:28;;;;;;;11.85;8.63;;;17.10;99.90;;;;;;5070470;28;20119;-81
2022/06/08 11:29:22;;;;;;;8.32;6.70;;;17.00;99.90;;;;;;5047080;28;20453;-83
2022/06/08 11:31:53;;;;;;;9.02;7.25;;;17.10;99.90;;;;;;5058511;28;20048;-83
2022/06/08 11:34:21;;;;;;;11.73;7.40;;;17.10;99.90;;;;;;5069534;28;20126;-87
2022/06/08 11:37:02;;;;;;;10.82;7.63;;;17.20;99.90;;;;;;5072207;28;20128;-87
2022/06/08 11:39:46;;;;;;;12.48;7.18;;;17.20;99.90;;;;;;5052698;28;20106;-86
2022/06/08 11:42:14;;;;;;;9.27;7.40;;;17.10;99.90;;;;;;5050741;28;20059;-85
2022/06/08 11:44:51;;;;;;;9.20;7.28;;;17.50;99.90;;;;;;5045662;28;20465;-85
2022/06/08 11:47:26;;;;;;;8.13;6.88;;;17.50;99.90;;;;;;5069305;28;20041;-86
2022/06/08 11:50:00;;;;;;;10.35;8.48;;;17.90;99.90;;;;;;5072147;28;20056;-86
2022/06/08 11:52:31;;;;;;;12.73;8.85;;;17.90;99.90;;;;;;5023290;28;20320;-84
2022/06/08 11:55:18;;;;;;;11.13;9.77;;;18.00;99.90;;;;;;5053510;28;20271;-87
2022/06/08 11:58:04;;;;;;;10.25;9.05;;;18.30;99.90;;;;;;5068998;28;20119;-87
2022/06/08 12:00:34;;;;;;;9.75;8.38;;;18.50;99.90;;;;;;5070153;28;20125;-86
2022/06/08 12:03:34;;;;;;;13.10;8.13;;;18.60;99.90;;;;;;5070762;28;20046;-84
2022/06/08 12:06:08;;;;;;;7.60;6.90;;;18.70;99.90;;;;;;5041504;28;20126;-84
2022/06/08 12:08:49;;;;;;;9.25;7.18;;;18.80;99.90;;;;;;5068839;28;20045;-82
2022/06/08 12:11:18;;;;;;;8.23;7.13;;;18.90;99.90;;;;;;5069895;28;20051;-83
2022/06/08 12:14:13;;;;;;;16.60;6.00;;;18.80;99.90;;;;;;5042839;28;20029;-79
2022/06/08 12:16:50;;;;;;;8.00;5.20;;;18.90;99.90;;;;;;5047622;28;20128;-77
2022/06/08 12:19:19;;;;;;;8.85;5.43;;;18.90;99.90;;;;;;5069144;28;20426;-82
2022/06/08 12:21:49;;;;;;;7.82;4.70;;;18.70;99.90;;;;;;5068815;28;20044;-82
2022/06/08 12:24:14;;;;;;;8.77;4.68;;;18.70;99.90;;;;;;5069244;28;20044;-82
2022/06/08 12:27:20;;;;;;;11.38;5.78;;;18.50;99.90;;;;;;5066305;28;20114;-81
2022/06/08 12:29:53;;;;;;;14.15;6.55;;;18.30;99.90;;;;;;5045682;28;20099;-82
2022/06/08 12:32:30;;;;;;;10.02;5.88;;;18.40;99.90;;;;;;5065431;28;20391;-82
2022/06/08 12:35:17;;;;;;;7.85;5.28;;;18.30;99.90;;;;;;5065026;28;20048;-85
2022/06/08 12:37:45;;;;;;;5.13;4.00;;;18.10;99.90;;;;;;5065405;28;20043;-84
2022/06/08 12:40:17;;;;;;;5.50;4.38;;;18.10;99.90;;;;;;5064697;28;20037;-83
2022/06/08 12:42:59;;;;;;;11.30;4.07;;;18.00;99.90;;;;;;5046846;28;20071;-83
2022/06/08 12:45:33;;;;;;;6.18;3.88;;;18.20;99.90;;;;;;5044084;28;20045;-84
2022/06/08 12:48:16;;;;;;;6.25;4.15;;;18.00;99.90;;;;;;5044678;28;20049;-84
2022/06/08 12:50:42;;;;;;;5.38;3.22;;;18.00;99.90;;;;;;5027024;28;20392;-83
2022/06/08 12:53:08;;;;;;;5.40;3.35;;;17.80;99.90;;;;;;5050823;28;20102;-85
2022/06/08 12:55:36;;;;;;;4.80;3.75;;;17.30;99.90;;;;;;5046094;28;20044;-84
2022/06/08 12:58:02;;;;;;;7.97;7.18;;;17.30;99.90;;;;;;5065212;28;20040;-83
2022/06/08 13:00:30;;;;;;;11.15;9.27;;;17.40;99.90;;;;;;5063381;28;20120;-83
2022/06/08 13:02:59;;;;;;;11.00;9.95;;;17.30;99.90;;;;;;5065041;28;20094;-84
2022/06/08 13:05:31;;;;;;;10.88;9.77;;;17.20;99.90;;;;;;5064395;28;20037;-80
2022/06/08 13:07:58;;;;;;;13.25;12.00;;;17.20;99.90;;;;;;5063405;28;20116;-84
2022/06/08 13:10:26;;;;;;;14.15;12.35;;;17.20;99.90;;;;;;5046314;28;20055;-84
2022/06/08 13:12:58;;;;;;;15.07;13.40;;;17.20;99.90;;;;;;5064373;28;20036;-81